ADDS TAF Board (Experimental) INFO Settings

IDs: Format: Expanded Condensed

KMDW - Chicago/Midway Intl, IL, US

Issued at 2340 UTC 06 Mar 2015
Updated at: 0005 UTC 07 Mar 2015
Time2353Z 07/01Z 07/02Z 07/03Z 07/04Z 07/05Z 07/06Z 07/07Z 07/08Z 07/09Z 07/10Z 07/11Z 07/12Z 07/13Z
Type OBS PRVL PRVL PRVL PRVL PRVL PRVL PRVL PRVL PRVL PRVL PRVL PRVL PRVL
VIS 10 >6 >6 >6 >6 >6 >6 >6 >6 >6 >6 >6 >6 >6
CIG -- -- -- -- -- -- -- -- -- -- -- -- -- --
Cover FEW SCT SCT SCT SCT SCT SCT SCT SCT SCT SCT SCT SCT SCT
FltCat VFR VFR VFR VFR VFR VFR VFR VFR VFR VFR VFR VFR VFR VFR
WX -- -- -- -- -- -- -- -- -- -- -- -- -- --
WDir 200 230 230 230 230 230 230 230 230 230 230 230 230 230
WSpd 14 11 11 11 11 11 11 11 11 11 11 11 11 11
WGst -- -- -- -- -- -- -- -- -- -- -- -- -- --
R04/22
XWnd -5 1 1 1 1 1 1 1 1 1 1 1 1 1
HWnd -13 -11 -11 -11 -11 -11 -11 -11 -11 -11 -11 -11 -11 -11
R13/31
XWnd -13 -11 -11 -11 -11 -11 -11 -11 -11 -11 -11 -11 -11 -11
HWnd 6 -1 -1 -1 -1 -1 -1 -1 -1 -1 -1 -1 -1 -1

NOTE: TEMPO conditions in [brackets]. Keep in mind TEMPO conditions might be better (lower impact) than prevailing conditions.

Raw TAF
KMDW 062340Z 0700/0724 20014G22KT P6SM FEW090 SCT250
  FM070100 23011KT P6SM FEW030 SCT150
  FM071500 25012G19KT P6SM SCT080
  FM072100 28012G17KT P6SM SCT100


Raw METAR
KMDW 062353Z 20014KT 10SM FEW250 M04/M10 A3020 RMK AO2 SLP246 4/004 T10391100 11028 21050 56014
KMDW 062253Z 21016G22KT 10SM CLR M03/M09 A3021 RMK AO2 SLP249 T10331094
KMDW 062153Z 21018G23KT 10SM FEW250 M03/M10 A3023 RMK AO2 PK WND 20027/2114 SLP255 T10331100

METAR Board
Radar Display
Forecast Discussion

TAF Board Legend

Potential Impact
Threat None Slight Moderate High
Visibility (sm) ≥5.1 5.1>X≥3 3>X≥1 <1
Ceiling (100 ft) ≥30.1 30.1>X≥10 10>X≥5 <5
Wind Speed (kt) <10 10≤X<20 20≤X<30 ≥30
Wind Gust (kt) <15 15≤X<25 25≤X<35 ≥35
Weather No Wx Reported VCTS,-TS,-FZRA,SN TS,FZRA +TS,+FZRA,+SN